Time;durP1;ratioP1;P1;durP2;ratioP2;P2;SDS_P1;SDS_P2;PMS_P1;PMS_P2;Temp;Humidity;BMP_temperature;BMP_pressure;BME280_temperature;BME280_humidity;BME280_pressure;Samples;Min_cycle;Max_cycle;Signal;HPM_P1;HPM_P2
2022/07/30 00:00:00;;;;;;;10.07;8.43;;;;;;;15.54;97.22;96147.78;2049780;28;20054;-44
2022/07/30 00:01:02;;;;;;;7.45;6.75;;;;;;;15.48;96.96;96148.19;2049652;28;20043;-46
2022/07/30 00:02:03;;;;;;;9.38;7.28;;;;;;;15.47;97.32;96151.72;2058198;28;20058;-42
2022/07/30 00:03:05;;;;;;;9.00;6.35;;;;;;;15.45;96.55;96145.78;2041812;29;20047;-43
2022/07/30 00:04:06;;;;;;;7.68;6.55;;;;;;;15.46;96.18;96149.22;2034322;28;20048;-44
2022/07/30 00:05:07;;;;;;;7.35;5.70;;;;;;;15.43;95.82;96145.88;2049885;28;20047;-45
2022/07/30 00:06:09;;;;;;;8.45;6.63;;;;;;;15.40;96.17;96143.44;2050100;28;20136;-42
2022/07/30 00:07:10;;;;;;;9.50;6.05;;;;;;;15.40;95.61;96142.63;2050032;28;20051;-45
2022/07/30 00:08:11;;;;;;;8.20;7.15;;;;;;;15.35;96.45;96145.50;2049937;28;20429;-42
2022/07/30 00:09:12;;;;;;;7.90;6.45;;;;;;;15.32;96.85;96147.50;2034309;29;20044;-43
2022/07/30 00:10:14;;;;;;;9.32;6.93;;;;;;;15.28;97.23;96144.22;2057960;28;20050;-43
2022/07/30 00:11:15;;;;;;;8.93;7.35;;;;;;;15.28;96.79;96143.38;2057060;28;20430;-43
2022/07/30 00:12:16;;;;;;;10.40;6.90;;;;;;;15.28;97.39;96143.38;2056434;28;20050;-45
2022/07/30 00:13:17;;;;;;;9.23;6.95;;;;;;;15.28;96.78;96141.59;2049648;28;20058;-43
2022/07/30 00:14:18;;;;;;;7.97;7.10;;;;;;;15.26;97.41;96148.69;2041976;28;20056;-43
2022/07/30 00:15:20;;;;;;;7.90;6.60;;;;;;;15.23;97.13;96148.91;2049924;28;20541;-42
2022/07/30 00:16:21;;;;;;;10.98;6.93;;;;;;;15.25;96.42;96152.25;2049547;28;20050;-43
2022/07/30 00:17:22;;;;;;;7.03;6.28;;;;;;;15.22;96.52;96142.00;2049473;28;20058;-45
2022/07/30 00:18:24;;;;;;;8.30;6.80;;;;;;;15.24;95.81;96147.16;2049382;28;20043;-42
2022/07/30 00:19:25;;;;;;;7.10;6.40;;;;;;;15.22;97.10;96142.84;2042206;28;20047;-44
2022/07/30 00:20:26;;;;;;;7.85;6.57;;;;;;;15.19;96.12;96155.28;2049108;28;20541;-43
2022/07/30 00:21:27;;;;;;;10.55;6.43;;;;;;;15.21;96.47;96146.41;2049802;28;20058;-43
2022/07/30 00:22:29;;;;;;;10.23;7.40;;;;;;;15.24;96.99;96147.16;2057495;28;20046;-45
2022/07/30 00:23:31;;;;;;;10.02;6.60;;;;;;;15.24;96.92;96144.53;2066673;28;20046;-43
2022/07/30 00:24:32;;;;;;;7.20;6.22;;;;;;;15.24;96.67;96141.91;2057869;28;20057;-41
2022/07/30 00:25:34;;;;;;;8.32;6.20;;;;;;;15.22;96.07;96145.44;2049525;28;20050;-42
2022/07/30 00:26:35;;;;;;;7.07;6.03;;;;;;;15.19;96.34;96145.66;2057329;28;20046;-46
2022/07/30 00:27:36;;;;;;;6.75;5.57;;;;;;;15.19;95.47;96134.34;2049829;28;20039;-43
2022/07/30 00:28:38;;;;;;;7.45;6.60;;;;;;;15.18;95.59;96132.66;2057272;28;20046;-42
2022/07/30 00:29:39;;;;;;;8.52;5.35;;;;;;;15.16;95.94;96134.53;2057689;28;20057;-46
2022/07/30 00:30:40;;;;;;;8.23;5.90;;;;;;;15.16;95.11;96134.53;2065091;28;20527;-42
2022/07/30 00:31:42;;;;;;;6.93;5.45;;;;;;;15.13;95.81;96127.72;2057291;28;20436;-42
2022/07/30 00:32:44;;;;;;;5.85;5.20;;;;;;;15.13;96.23;96130.34;2057646;28;20043;-44
2022/07/30 00:33:45;;;;;;;7.22;5.88;;;;;;;15.10;96.19;96121.84;2065706;28;20455;-45
2022/07/30 00:34:47;;;;;;;8.70;5.53;;;;;;;15.08;95.51;96127.19;2049588;28;20555;-44
2022/07/30 00:35:48;;;;;;;6.75;5.63;;;;;;;15.08;95.95;96127.19;2049887;28;20062;-43
2022/07/30 00:36:49;;;;;;;7.05;5.80;;;;;;;15.08;95.35;96126.34;2056903;28;20051;-43
2022/07/30 00:37:50;;;;;;;6.07;4.95;;;;;;;15.07;96.12;96125.47;2057573;28;20428;-41
2022/07/30 00:38:51;;;;;;;5.95;5.35;;;;;;;15.05;95.34;96137.84;2041267;29;20055;-45
2022/07/30 00:39:53;;;;;;;8.18;5.78;;;;;;;15.07;95.67;96135.94;2049603;28;20059;-44
2022/07/30 00:40:54;;;;;;;9.02;5.55;;;;;;;15.01;95.65;96125.88;2042064;28;20047;-43
2022/07/30 00:41:58;;;;;;;7.22;5.45;;;;;;;15.01;95.94;96133.72;2048583;28;20058;-41
2022/07/30 00:42:59;;;;;;;8.10;5.60;;;;;;;15.02;95.66;96135.38;2050224;28;20728;-42
2022/07/30 00:44:00;;;;;;;6.18;5.57;;;;;;;15.00;96.16;96134.66;2041558;29;20063;-42
2022/07/30 00:45:03;;;;;;;8.07;6.35;;;;;;;15.00;96.23;96132.88;2049185;28;20058;-41
2022/07/30 00:46:04;;;;;;;7.90;5.90;;;;;;;14.99;96.39;96132.97;2057511;28;20058;-44
2022/07/30 00:47:05;;;;;;;7.07;6.25;;;;;;;14.97;97.11;96134.88;2049671;28;20405;-42
2022/07/30 00:48:07;;;;;;;6.60;5.38;;;;;;;14.95;95.99;96126.28;2057192;28;20055;-42
2022/07/30 00:49:08;;;;;;;11.25;6.03;;;;;;;14.96;96.69;96133.16;2041382;28;20056;-45
2022/07/30 00:50:10;;;;;;;8.05;6.15;;;;;;;14.94;96.21;96130.66;2049818;28;20047;-42
2022/07/30 00:51:11;;;;;;;6.88;5.13;;;;;;;14.94;96.17;96135.03;2049438;28;20099;-43
2022/07/30 00:52:13;;;;;;;7.28;5.70;;;;;;;14.95;95.82;96134.13;2040949;29;20051;-43
2022/07/30 00:53:15;;;;;;;6.90;5.78;;;;;;;14.96;96.14;96135.78;2049672;28;20445;-43
2022/07/30 00:54:16;;;;;;;7.07;5.63;;;;;;;14.95;96.46;96128.88;2065280;28;20049;-46
2022/07/30 00:55:17;;;;;;;9.25;5.68;;;;;;;14.93;95.77;96128.13;2065518;28;20423;-41
2022/07/30 00:56:18;;;;;;;7.13;5.13;;;;;;;14.91;96.00;96127.38;2041572;29;20449;-44
2022/07/30 00:57:20;;;;;;;8.10;5.55;;;;;;;14.92;96.12;96131.69;2049113;28;20050;-42
2022/07/30 00:58:21;;;;;;;6.15;5.55;;;;;;;14.91;95.85;96132.63;2065819;28;20053;-40
2022/07/30 00:59:23;;;;;;;7.43;6.32;;;;;;;14.89;96.89;96134.47;2049910;28;20043;-43
2022/07/30 01:00:24;;;;;;;7.20;6.15;;;;;;;14.88;96.27;96132.81;2049689;28;20656;-42
2022/07/30 01:01:25;;;;;;;7.90;6.30;;;;;;;14.85;96.26;96130.38;2057451;28;20061;-43
2022/07/30 01:02:27;;;;;;;7.60;6.22;;;;;;;14.83;95.86;96132.25;2056942;28;20050;-43
2022/07/30 01:03:28;;;;;;;8.80;5.13;;;;;;;14.81;95.66;96131.50;2049274;28;20402;-43
2022/07/30 01:04:29;;;;;;;8.60;6.00;;;;;;;14.82;96.43;96138.44;2057472;28;20412;-42
2022/07/30 01:05:31;;;;;;;8.52;6.32;;;;;;;14.84;96.35;96133.94;2042110;28;20051;-42
2022/07/30 01:06:32;;;;;;;7.78;6.35;;;;;;;14.81;96.00;96137.59;2041856;28;20052;-42
2022/07/30 01:07:34;;;;;;;7.97;5.53;;;;;;;14.78;96.14;96141.22;2057570;28;20047;-40
2022/07/30 01:08:35;;;;;;;8.65;6.68;;;;;;;14.78;96.16;96138.63;2057355;28;20043;-42
2022/07/30 01:09:37;;;;;;;6.57;5.93;;;;;;;14.75;96.75;96133.59;2052502;28;20043;-42
2022/07/30 01:10:38;;;;;;;9.02;6.57;;;;;;;14.71;97.03;96134.69;2057375;28;20042;-42
2022/07/30 01:11:40;;;;;;;6.57;5.93;;;;;;;14.65;96.41;96134.22;2073390;28;20049;-43
2022/07/30 01:12:41;;;;;;;8.43;6.75;;;;;;;14.66;96.64;96134.13;2048491;28;20054;-42
2022/07/30 01:13:43;;;;;;;9.90;6.82;;;;;;;14.67;96.76;96134.97;2049328;28;20082;-46
2022/07/30 01:14:44;;;;;;;8.98;6.10;;;;;;;14.69;96.94;96139.16;2065017;28;20046;-43
2022/07/30 01:15:46;;;;;;;7.95;7.05;;;;;;;14.68;97.55;96134.06;2057425;28;20059;-43
2022/07/30 01:16:48;;;;;;;6.47;5.60;;;;;;;14.66;97.09;96141.13;2057059;28;20057;-43
2022/07/30 01:17:49;;;;;;;9.05;6.35;;;;;;;14.65;96.64;96136.81;2065226;28;20051;-40
2022/07/30 01:21:17;;;;;;;9.00;6.65;;;;;;;14.60;96.56;96136.28;2073309;28;20104;-44
2022/07/30 01:22:42;;;;;;;7.40;6.40;;;;;;;14.56;96.74;96130.41;2064466;28;20062;-40
2022/07/30 01:23:45;;;;;;;7.85;6.70;;;;;;;14.57;96.86;96134.72;2043842;29;20047;-44
2022/07/30 01:24:56;;;;;;;8.43;6.15;;;;;;;14.63;96.36;96131.72;2033505;29;20051;-42
2022/07/30 01:26:04;;;;;;;7.68;6.55;;;;;;;14.61;96.68;96132.75;2036463;29;20062;-40
2022/07/30 01:27:06;;;;;;;8.30;6.50;;;;;;;14.57;96.69;96132.09;2044157;28;20054;-44
2022/07/30 01:28:10;;;;;;;7.70;6.15;;;;;;;14.59;96.70;96132.81;2049277;28;20051;-42
2022/07/30 01:29:11;;;;;;;6.93;5.55;;;;;;;14.51;96.30;96121.97;2041721;28;20056;-40
2022/07/30 01:30:14;;;;;;;10.48;6.78;;;;;;;14.54;97.35;96129.63;2041197;28;20052;-42
2022/07/30 01:31:15;;;;;;;9.05;6.57;;;;;;;14.51;97.53;96132.41;2049161;28;20050;-42
2022/07/30 01:32:17;;;;;;;8.32;7.05;;;;;;;14.50;97.32;96121.13;2048996;28;20047;-42
2022/07/30 01:33:18;;;;;;;7.47;6.63;;;;;;;14.49;96.86;96119.47;2049203;28;20440;-42
2022/07/30 01:34:20;;;;;;;6.93;6.15;;;;;;;14.48;97.46;96127.38;2049043;29;20067;-40
2022/07/30 01:35:21;;;;;;;7.72;6.22;;;;;;;14.50;96.93;96125.53;2048980;28;20058;-42
2022/07/30 01:36:23;;;;;;;9.20;6.93;;;;;;;14.44;97.21;96112.84;2049079;28;20054;-40
2022/07/30 01:37:24;;;;;;;8.27;6.55;;;;;;;14.46;96.98;96119.66;2041237;29;20040;-44
2022/07/30 01:38:26;;;;;;;7.88;6.65;;;;;;;14.45;97.33;96117.94;2041644;28;20047;-41
2022/07/30 01:39:29;;;;;;;7.88;6.38;;;;;;;14.47;97.51;96117.88;2048700;28;20389;-41
2022/07/30 01:40:30;;;;;;;8.75;6.90;;;;;;;14.47;96.75;96128.31;2041582;28;20043;-45
2022/07/30 01:41:32;;;;;;;10.73;6.70;;;;;;;14.42;97.64;96117.31;2033780;29;20509;-40
2022/07/30 01:42:33;;;;;;;8.60;6.20;;;;;;;14.44;97.19;96126.72;2032557;29;20449;-42
2022/07/30 01:43:34;;;;;;;6.80;6.15;;;;;;;14.47;97.41;96130.94;2041026;29;20055;-41
2022/07/30 01:44:35;;;;;;;9.02;7.35;;;;;;;14.48;97.98;96132.59;2048761;28;20051;-42
2022/07/30 01:45:37;;;;;;;10.68;6.90;;;;;;;14.49;97.23;96131.69;2049299;28;20058;-45
2022/07/30 01:46:38;;;;;;;9.18;6.97;;;;;;;14.48;97.15;96137.81;2041082;29;20047;-41
2022/07/30 01:47:40;;;;;;;8.27;7.25;;;;;;;14.46;97.59;96130.09;2040701;29;20080;-41
2022/07/30 01:48:41;;;;;;;10.43;6.57;;;;;;;14.46;97.61;96140.56;2064693;28;20042;-42
2022/07/30 01:49:44;;;;;;;9.05;6.78;;;;;;;14.47;97.42;96142.22;2052184;28;20059;-42
2022/07/30 01:50:46;;;;;;;6.93;6.22;;;;;;;14.48;97.33;96136.06;2049528;28;20124;-42
2022/07/30 01:51:48;;;;;;;9.95;6.70;;;;;;;14.47;97.09;96133.53;2040516;29;20058;-42
2022/07/30 01:52:51;;;;;;;7.20;6.50;;;;;;;14.48;97.65;96136.06;2024646;29;20052;-43
2022/07/30 01:53:52;;;;;;;9.85;7.20;;;;;;;14.48;97.68;96135.22;2033967;29;20052;-41
2022/07/30 01:54:54;;;;;;;7.63;6.80;;;;;;;14.45;97.34;96141.47;2033861;29;20418;-41
2022/07/30 01:55:55;;;;;;;8.73;6.55;;;;;;;14.46;97.52;96134.47;2033596;29;20060;-42
2022/07/30 01:56:57;;;;;;;9.13;6.88;;;;;;;14.45;96.94;96136.25;2040905;29;20528;-43
2022/07/30 01:57:59;;;;;;;10.25;6.97;;;;;;;14.43;97.08;96132.03;2033543;29;20068;-45
2022/07/30 01:59:01;;;;;;;9.70;6.82;;;;;;;14.41;97.48;96132.16;2025744;29;20055;-43
2022/07/30 02:00:05;;;;;;;8.43;7.32;;;;;;;14.38;97.64;96131.47;2025787;29;20443;-42
2022/07/30 02:01:17;;;;;;;10.48;8.30;;;;;;;14.31;97.75;96129.25;2050638;28;20051;-43
2022/07/30 02:02:21;;;;;;;9.32;7.55;;;;;;;14.30;98.27;96132.78;2049921;28;20058;-42
2022/07/30 02:03:25;;;;;;;10.07;7.65;;;;;;;14.32;97.83;96128.28;2049298;28;20051;-43
2022/07/30 02:04:26;;;;;;;10.10;7.80;;;;;;;14.30;98.42;96135.41;2049083;28;20042;-42
2022/07/30 02:05:27;;;;;;;9.60;7.55;;;;;;;14.28;98.45;96129.44;2033441;29;20533;-45
2022/07/30 02:06:32;;;;;;;9.52;7.57;;;;;;;14.28;98.51;96123.38;2040775;29;20042;-42
2022/07/30 02:07:57;;;;;;;8.52;6.80;;;;;;;14.31;98.17;96126.63;2041263;29;20047;-39
2022/07/30 02:09:01;;;;;;;9.38;7.80;;;;;;;14.31;98.58;96129.25;2044352;29;20420;-41
2022/07/30 02:10:11;;;;;;;9.48;7.95;;;;;;;14.33;98.41;96130.00;2040476;28;20058;-44
2022/07/30 02:12:27;;;;;;;9.82;7.60;;;;;;;14.35;98.44;96127.28;2045498;28;20052;-42
2022/07/30 02:13:50;;;;;;;9.82;7.47;;;;;;;14.42;97.68;96135.59;2063661;28;20045;-42
2022/07/30 02:14:59;;;;;;;8.27;7.03;;;;;;;14.46;97.52;96139.69;2072192;28;20042;-44
2022/07/30 02:16:05;;;;;;;;;;;;;;;14.44;97.49;96137.19;2066330;28;20057;-41
2022/07/30 02:17:07;;;;;;;10.48;7.38;;;;;;;14.46;97.69;96137.94;2058296;28;19921;-43
2022/07/30 02:18:48;;;;;;;7.55;6.75;;;;;;;14.50;97.63;96138.59;2064391;28;20061;-44
2022/07/30 02:19:52;;;;;;;10.02;7.60;;;;;;;14.50;97.52;96141.19;2062578;28;20405;-41
2022/07/30 02:21:00;;;;;;;9.75;7.05;;;;;;;14.52;97.56;96144.56;2057134;28;20105;-41
2022/07/30 02:22:05;;;;;;;9.70;8.32;;;;;;;14.53;97.57;96135.81;2065189;28;20046;-42
2022/07/30 02:23:09;;;;;;;9.23;8.05;;;;;;;14.54;97.27;96147.94;2064564;28;20050;-42
2022/07/30 02:24:11;;;;;;;10.65;7.10;;;;;;;14.57;97.83;96134.72;2057043;28;20055;-42
2022/07/30 02:25:16;;;;;;;9.05;7.68;;;;;;;14.58;97.35;96136.38;2064943;28;20049;-42
2022/07/30 02:26:19;;;;;;;9.93;7.63;;;;;;;14.61;97.66;96133.56;2049341;28;20043;-42
2022/07/30 02:27:25;;;;;;;10.88;7.47;;;;;;;14.63;97.34;96133.50;2049112;28;20533;-43
2022/07/30 02:28:26;;;;;;;8.73;7.50;;;;;;;14.65;97.12;96132.47;2065651;28;20046;-45
2022/07/30 02:29:30;;;;;;;11.23;7.45;;;;;;;14.67;97.34;96132.34;2064603;28;20551;-44
2022/07/30 02:30:32;;;;;;;9.20;8.00;;;;;;;14.68;97.41;96134.06;2057026;28;20460;-42
2022/07/30 02:31:34;;;;;;;8.45;7.60;;;;;;;14.68;97.38;96131.44;2057605;28;20057;-44
2022/07/30 02:32:38;;;;;;;12.48;7.68;;;;;;;14.69;96.91;96131.31;2064407;28;20034;-41
2022/07/30 02:33:40;;;;;;;8.07;6.95;;;;;;;14.68;96.87;96128.81;2041672;28;20055;-41
2022/07/30 02:34:42;;;;;;;9.45;8.00;;;;;;;14.70;97.15;96130.41;2042026;28;20052;-42
2022/07/30 02:35:45;;;;;;;10.43;7.63;;;;;;;14.71;96.64;96134.69;2049174;28;20066;-46
2022/07/30 02:36:46;;;;;;;8.73;7.72;;;;;;;14.71;97.09;96128.63;2041005;28;20132;-40
2022/07/30 02:37:47;;;;;;;11.00;7.63;;;;;;;14.71;97.13;96126.00;2040699;29;20469;-43
2022/07/30 02:38:49;;;;;;;8.63;7.57;;;;;;;14.72;97.06;96125.91;2040642;29;20054;-40
2022/07/30 02:39:50;;;;;;;10.20;7.78;;;;;;;14.72;96.70;96119.84;2041254;28;20079;-42
2022/07/30 02:40:52;;;;;;;8.80;7.22;;;;;;;14.71;97.21;96124.25;2048886;28;20047;-43
2022/07/30 02:41:53;;;;;;;11.05;7.88;;;;;;;14.70;96.62;96127.78;2056423;28;20535;-44
2022/07/30 02:42:54;;;;;;;14.30;8.00;;;;;;;14.70;97.19;96119.97;2057070;28;20073;-42
2022/07/30 02:43:59;;;;;;;9.80;7.72;;;;;;;14.70;96.72;96119.09;2041686;28;20051;-44
2022/07/30 02:45:02;;;;;;;10.48;8.10;;;;;;;14.70;97.45;96121.69;2041953;28;20056;-41
2022/07/30 02:46:03;;;;;;;13.55;8.30;;;;;;;14.71;96.86;96113.78;2041536;28;20058;-43
2022/07/30 02:47:23;;;;;;;11.25;7.50;;;;;;;14.75;96.29;96123.13;2051192;28;20043;-42
2022/07/30 02:48:29;;;;;;;10.55;7.60;;;;;;;14.72;96.51;96115.44;2049443;28;20409;-41
2022/07/30 02:49:30;;;;;;;9.10;7.57;;;;;;;14.75;96.72;96117.91;2036850;29;20043;-42
2022/07/30 02:50:32;;;;;;;8.13;7.20;;;;;;;14.75;96.48;96120.50;2040937;28;20067;-42
2022/07/30 02:51:34;;;;;;;11.90;7.47;;;;;;;14.78;96.10;96122.06;2041232;28;20437;-38
2022/07/30 02:52:35;;;;;;;8.77;7.78;;;;;;;14.78;96.61;96120.31;2032921;29;20538;-45
2022/07/30 02:53:36;;;;;;;12.77;8.02;;;;;;;14.80;96.54;96124.59;2056000;28;20047;-41
2022/07/30 02:54:38;;;;;;;11.75;7.45;;;;;;;14.82;96.59;96120.13;2064627;28;20050;-42
2022/07/30 02:55:40;;;;;;;12.02;8.38;;;;;;;14.85;96.33;96119.94;2040986;28;20102;-44
2022/07/30 02:56:41;;;;;;;8.23;7.25;;;;;;;14.86;95.76;96117.22;2056069;28;20065;-41
2022/07/30 02:57:42;;;;;;;8.55;6.68;;;;;;;14.85;95.93;96115.53;2048332;29;20058;-42
2022/07/30 02:58:43;;;;;;;12.82;7.47;;;;;;;14.83;96.71;96114.78;2048054;28;20433;-45
2022/07/30 02:59:45;;;;;;;8.40;7.30;;;;;;;14.86;95.99;96111.13;2048158;29;20086;-42
2022/07/30 03:00:48;;;;;;;10.60;8.05;;;;;;;14.87;96.50;96116.28;2048063;29;20078;-40
2022/07/30 03:01:49;;;;;;;10.60;7.20;;;;;;;14.83;96.68;96111.34;2040907;29;20047;-44
2022/07/30 03:02:52;;;;;;;9.38;7.50;;;;;;;14.88;96.01;96114.50;2032981;29;20052;-43
2022/07/30 03:03:53;;;;;;;11.77;7.43;;;;;;;14.87;96.15;96118.91;2033129;29;20387;-41
2022/07/30 03:04:55;;;;;;;9.15;7.00;;;;;;;14.88;96.01;96117.13;2033374;29;20521;-42
2022/07/30 03:05:56;;;;;;;10.90;7.57;;;;;;;14.87;96.07;96116.28;2040999;29;20055;-43
2022/07/30 03:06:58;;;;;;;8.63;7.40;;;;;;;14.89;95.55;96117.03;2024746;29;20048;-41
2022/07/30 03:07:59;;;;;;;8.48;7.32;;;;;;;14.90;96.11;96112.66;2041050;28;20058;-42
2022/07/30 03:09:01;;;;;;;7.72;6.97;;;;;;;14.90;95.74;96115.25;2040322;29;20052;-42
2022/07/30 03:10:03;;;;;;;9.57;7.40;;;;;;;14.90;95.83;96113.47;2053358;28;20550;-42
2022/07/30 03:11:04;;;;;;;9.02;7.13;;;;;;;14.91;95.49;96111.69;2040451;28;20432;-45
2022/07/30 03:12:05;;;;;;;10.32;7.15;;;;;;;14.85;95.46;96109.47;2040657;28;20052;-41
2022/07/30 03:13:07;;;;;;;8.82;7.40;;;;;;;14.88;96.07;96106.66;2048531;28;20051;-41
2022/07/30 03:14:10;;;;;;;8.60;7.43;;;;;;;14.87;96.04;96108.44;2048126;28;20054;-41
2022/07/30 03:15:11;;;;;;;8.15;6.47;;;;;;;14.87;95.66;96108.44;2041650;28;20056;-42
2022/07/30 03:16:12;;;;;;;7.97;6.63;;;;;;;14.88;96.33;96112.72;2048469;28;20058;-45
2022/07/30 03:17:14;;;;;;;8.75;7.45;;;;;;;14.88;96.31;96115.34;2063904;28;20057;-42
2022/07/30 03:18:18;;;;;;;8.55;6.80;;;;;;;14.88;95.62;96110.13;2072199;28;20081;-42
2022/07/30 03:19:21;;;;;;;9.73;6.70;;;;;;;14.91;96.10;96115.16;2056726;28;20054;-41
2022/07/30 03:20:26;;;;;;;9.00;7.22;;;;;;;14.89;96.09;96122.25;2041329;28;20103;-44
2022/07/30 03:21:27;;;;;;;8.43;7.03;;;;;;;14.90;95.47;96116.09;2041841;28;20044;-43
2022/07/30 03:22:28;;;;;;;8.85;7.28;;;;;;;14.94;96.05;96121.97;2048261;28;20066;-42
2022/07/30 03:23:30;;;;;;;8.73;6.43;;;;;;;14.92;95.51;96116.84;2047837;28;20532;-43
2022/07/30 03:24:31;;;;;;;7.70;6.80;;;;;;;14.89;95.28;96119.66;2048727;28;20047;-42
2022/07/30 03:25:34;;;;;;;8.45;6.90;;;;;;;14.92;95.18;96123.84;2040629;28;20047;-41
2022/07/30 03:26:35;;;;;;;8.40;6.95;;;;;;;14.93;95.11;96117.69;2040935;28;20480;-42
2022/07/30 03:27:37;;;;;;;9.48;6.97;;;;;;;14.94;94.93;96114.13;2056055;28;20047;-43
2022/07/30 03:28:38;;;;;;;9.20;7.07;;;;;;;14.92;95.51;96122.06;2056035;28;20042;-40
2022/07/30 03:29:39;;;;;;;6.95;6.00;;;;;;;14.92;94.88;96123.84;2056085;28;20043;-43
2022/07/30 03:30:42;;;;;;;9.63;6.85;;;;;;;14.95;95.18;96131.50;2048757;28;20043;-42
2022/07/30 03:31:44;;;;;;;7.72;7.00;;;;;;;14.92;95.64;96127.31;2068199;23;20535;-44
2022/07/30 03:32:45;;;;;;;8.48;6.97;;;;;;;14.96;95.09;96134.00;2039803;29;20060;-40
2022/07/30 03:33:46;;;;;;;7.75;6.38;;;;;;;14.95;95.08;96134.94;2033109;28;20059;-38
2022/07/30 03:34:48;;;;;;;7.72;6.40;;;;;;;14.91;94.85;96130.00;2032333;29;20044;-39
2022/07/30 03:35:49;;;;;;;7.55;6.63;;;;;;;14.94;94.82;96137.66;2032350;29;20048;-42
2022/07/30 03:36:51;;;;;;;8.45;6.63;;;;;;;14.91;95.15;96136.06;2025277;29;20430;-37
2022/07/30 03:37:53;;;;;;;9.80;6.68;;;;;;;14.92;95.46;96144.78;2032313;29;20064;-39
2022/07/30 03:38:54;;;;;;;7.88;7.07;;;;;;;14.91;95.03;96137.84;2033201;29;20071;-37
2022/07/30 03:39:56;;;;;;;8.25;7.13;;;;;;;14.87;95.36;96137.19;2024405;29;20495;-40
2022/07/30 03:40:58;;;;;;;9.95;7.20;;;;;;;14.84;96.01;96139.19;2023755;29;20155;-39
2022/07/30 03:42:00;;;;;;;8.07;6.53;;;;;;;14.82;95.81;96141.03;2032469;29;20048;-38
2022/07/30 03:43:01;;;;;;;10.23;6.15;;;;;;;14.83;95.26;96138.31;2024448;29;20059;-37
2022/07/30 03:44:02;;;;;;;8.38;7.05;;;;;;;14.87;94.77;96137.19;2024819;29;20056;-39
2022/07/30 03:45:05;;;;;;;8.18;6.88;;;;;;;14.84;94.87;96141.78;2032315;29;20446;-38
2022/07/30 03:46:08;;;;;;;10.32;7.18;;;;;;;14.82;95.15;96139.25;2033235;29;20059;-38
2022/07/30 03:47:14;;;;;;;9.18;7.22;;;;;;;14.80;95.68;96142.91;2033816;29;20082;-38
2022/07/30 03:48:20;;;;;;;7.65;6.85;;;;;;;14.84;94.73;96150.47;2040565;28;20047;-39
2022/07/30 03:49:22;;;;;;;8.05;6.63;;;;;;;14.85;95.22;96146.06;2042382;29;20506;-38
2022/07/30 03:50:23;;;;;;;8.35;6.80;;;;;;;14.88;95.16;96153.72;2040707;29;20099;-40
2022/07/30 03:51:24;;;;;;;8.27;6.70;;;;;;;14.85;95.81;96149.53;2032495;29;20538;-39
2022/07/30 03:52:27;;;;;;;11.02;7.05;;;;;;;14.84;95.11;96150.47;2033208;29;20060;-37
2022/07/30 03:53:30;;;;;;;8.18;6.97;;;;;;;14.85;95.46;96151.31;2032470;29;20052;-39
2022/07/30 03:54:52;;;;;;;10.38;7.60;;;;;;;14.84;95.31;96155.69;2030562;29;20048;-38
2022/07/30 03:55:58;;;;;;;9.63;6.68;;;;;;;14.85;95.36;96154.75;2031246;29;20055;-38
2022/07/30 03:57:12;;;;;;;8.80;7.03;;;;;;;14.89;94.92;96152.78;2042500;29;20052;-38
2022/07/30 03:58:13;;;;;;;9.75;6.95;;;;;;;14.91;94.25;96156.16;2041641;29;20052;-39
2022/07/30 03:59:14;;;;;;;8.27;7.47;;;;;;;14.90;95.12;96155.31;2032322;29;20099;-37
2022/07/30 04:00:16;;;;;;;9.60;6.95;;;;;;;14.92;94.67;96158.69;2032943;29;20063;-37
2022/07/30 04:01:24;;;;;;;8.90;6.25;;;;;;;14.94;94.55;96154.19;2032013;29;20055;-38
2022/07/30 04:02:25;;;;;;;7.47;6.75;;;;;;;14.92;94.47;96153.44;2035489;28;20055;-40
2022/07/30 04:03:37;;;;;;;10.30;7.03;;;;;;;14.98;94.61;96167.91;2047721;29;20449;-40
2022/07/30 04:04:42;;;;;;;7.30;6.55;;;;;;;14.97;94.66;96161.84;2032840;29;20580;-38
2022/07/30 04:05:43;;;;;;;8.82;7.00;;;;;;;14.97;94.21;96158.41;2032091;29;20047;-38
2022/07/30 04:06:46;;;;;;;7.53;6.07;;;;;;;14.98;94.67;96158.28;2033117;29;20048;-39
2022/07/30 04:07:47;;;;;;;8.98;6.90;;;;;;;15.03;92.59;96163.25;2032627;29;20051;-40
2022/07/30 04:08:50;;;;;;;7.93;6.63;;;;;;;15.05;93.05;96163.13;2040884;29;20048;-37
2022/07/30 04:09:51;;;;;;;9.48;6.72;;;;;;;15.05;94.02;96163.13;2047946;29;20066;-37
2022/07/30 04:11:11;;;;;;;8.32;6.72;;;;;;;15.03;93.62;96158.00;2032606;29;20047;-39
2022/07/30 04:12:18;;;;;;;8.65;5.85;;;;;;;15.04;93.41;96162.28;2023483;29;20052;-38
2022/07/30 04:13:19;;;;;;;8.05;6.18;;;;;;;15.05;93.01;96165.75;2026091;29;20447;-39
2022/07/30 04:14:22;;;;;;;7.75;6.63;;;;;;;15.05;93.65;96165.75;2040767;29;20047;-38
2022/07/30 04:15:23;;;;;;;7.50;5.80;;;;;;;15.09;92.58;96162.84;2033019;29;20466;-38
2022/07/30 04:16:28;;;;;;;8.32;6.65;;;;;;;15.10;93.04;96161.94;2032546;29;20044;-37
2022/07/30 04:17:34;;;;;;;7.95;5.93;;;;;;;15.14;92.46;96159.97;2041054;29;20051;-40
2022/07/30 04:18:41;;;;;;;7.97;5.97;;;;;;;15.13;92.17;96173.94;2039342;29;20050;-40
2022/07/30 04:19:46;;;;;;;11.18;5.88;;;;;;;15.14;92.29;96170.41;2033826;29;20048;-37
2022/07/30 04:20:49;;;;;;;10.00;6.30;;;;;;;15.16;92.48;96171.16;2033122;29;20059;-38
2022/07/30 04:21:50;;;;;;;7.65;5.82;;;;;;;15.16;92.51;96172.00;2040127;29;20437;-40
2022/07/30 04:22:52;;;;;;;9.57;6.25;;;;;;;15.19;92.11;96169.19;2033168;29;20067;-41
2022/07/30 04:23:53;;;;;;;6.35;5.70;;;;;;;15.20;92.14;96175.25;2032629;29;20064;-37
2022/07/30 04:24:55;;;;;;;9.18;6.38;;;;;;;15.22;91.71;96171.59;2040501;29;20048;-38
2022/07/30 04:25:56;;;;;;;9.82;7.05;;;;;;;15.22;92.49;96176.84;2031919;29;20052;-38
2022/07/30 04:26:59;;;;;;;6.78;5.53;;;;;;;15.24;92.31;96173.31;2033120;29;20052;-39
2022/07/30 04:28:00;;;;;;;8.75;5.75;;;;;;;15.27;92.32;96176.56;2040256;29;20047;-39
2022/07/30 04:29:03;;;;;;;6.63;5.95;;;;;;;15.26;92.26;96174.84;2040482;29;20055;-36
2022/07/30 04:30:05;;;;;;;11.65;6.63;;;;;;;15.27;92.51;96176.56;2039635;29;20056;-38
2022/07/30 04:31:08;;;;;;;7.40;6.55;;;;;;;15.30;92.47;96178.16;2033507;29;20056;-41
2022/07/30 04:32:09;;;;;;;8.35;6.15;;;;;;;15.26;91.97;96177.47;2024973;29;20052;-38
2022/07/30 04:33:31;;;;;;;6.82;5.70;;;;;;;15.33;91.29;96180.56;2030604;29;20417;-39
2022/07/30 04:34:48;;;;;;;6.82;5.95;;;;;;;15.31;91.95;96183.25;2040913;29;20054;-38
2022/07/30 04:35:50;;;;;;;9.32;6.40;;;;;;;15.32;91.90;96171.03;2048593;28;20066;-39
2022/07/30 04:36:54;;;;;;;8.15;5.80;;;;;;;15.31;91.71;96174.56;2033073;29;20051;-38
2022/07/30 04:37:56;;;;;;;8.43;6.10;;;;;;;15.31;90.28;96185.03;2033206;29;20052;-38
2022/07/30 04:38:58;;;;;;;7.72;6.28;;;;;;;15.34;91.22;96182.22;2040886;29;20044;-38
2022/07/30 04:39:59;;;;;;;7.43;5.80;;;;;;;15.36;91.29;96185.59;2027896;29;20056;-38
2022/07/30 04:41:01;;;;;;;7.47;5.93;;;;;;;15.36;91.56;96182.97;2034184;29;20584;-39
2022/07/30 04:42:06;;;;;;;6.85;5.85;;;;;;;15.40;90.50;96189.72;2032958;29;20048;-38
2022/07/30 04:43:10;;;;;;;8.77;6.20;;;;;;;15.40;90.66;96185.31;2026456;29;20048;-38
2022/07/30 04:44:13;;;;;;;9.55;6.35;;;;;;;15.35;91.41;96186.53;2027491;29;20075;-38
2022/07/30 04:45:25;;;;;;;7.35;5.53;;;;;;;15.41;89.95;96180.91;2035132;29;20048;-38
2022/07/30 04:46:30;;;;;;;7.57;5.80;;;;;;;15.42;90.54;96187.81;2043111;29;20048;-38
2022/07/30 04:47:31;;;;;;;7.47;5.45;;;;;;;15.49;89.68;96186.50;2042091;28;20050;-37
2022/07/30 04:48:53;;;;;;;9.48;6.15;;;;;;;15.50;90.58;96193.41;2036751;29;20047;-41
2022/07/30 04:49:54;;;;;;;7.00;5.75;;;;;;;15.49;89.46;96194.34;2041413;29;20051;-38
2022/07/30 04:50:58;;;;;;;8.75;6.60;;;;;;;15.48;90.15;96197.91;2033866;29;20051;-39
2022/07/30 04:51:59;;;;;;;8.45;6.25;;;;;;;15.49;89.91;96190.91;2026223;29;20056;-39
2022/07/30 04:53:01;;;;;;;7.75;5.55;;;;;;;15.48;89.75;96197.91;2033682;29;20056;-41
2022/07/30 04:54:07;;;;;;;8.18;6.15;;;;;;;15.47;90.00;96204.06;2041547;29;20048;-37
2022/07/30 04:55:09;;;;;;;6.90;5.50;;;;;;;15.52;90.01;96198.56;2049566;28;20421;-40
2022/07/30 04:56:11;;;;;;;7.75;6.07;;;;;;;15.52;89.84;96207.25;2034037;29;20526;-40
2022/07/30 04:57:12;;;;;;;7.93;6.13;;;;;;;15.49;90.77;96210.06;2041814;29;20055;-38
2022/07/30 04:58:17;;;;;;;7.40;5.90;;;;;;;15.52;90.17;96209.03;2034098;29;20560;-39
2022/07/30 04:59:18;;;;;;;9.85;6.22;;;;;;;15.46;90.02;96207.63;2026014;29;20059;-37